Orfeas — C6WM6 — position and weather

sailwx.info

Track history (hours):
 
Tides and Currents Weather Stations Pressure Air Temp Water Temp Dewpoint Dewpoint Depression Visibility Wind Speed Wind Dir Waves Ship Positions

Orfeas

Last reported at 2018-Apr-12 23:58 UTC. Time now 2018-Apr-23 13:42 UTC.
Position N 37°44' W 029°28'.
Warning: this ship's position is 10 days out of date.

Length 228 m; draft 12 m.

Type: Tanker. MMSI: 309286000.

Date/timePositionNaut miles runAvg speedWind from/ knotsBaromVisibWave heightAir tempDewpointWater temp
2018-Apr-12 23:58N 37°44' W 029°28'511.8
2018-Apr-12 23:30N 37°45' W 029°21'611.8
2018-Apr-12 23:00N 37°47' W 029°14'611.6
2018-Apr-12 22:30N 37°48' W 029°07'711.3
2018-Apr-12 21:55N 37°50' W 028°59'511.6
2018-Apr-12 21:30N 37°52' W 028°53'611.8
2018-Apr-12 21:01N 37°53' W 028°46'611.9
2018-Apr-12 20:30N 37°55' W 028°39'612.3
2018-Apr-12 20:00N 37°57' W 028°31'612.2
2018-Apr-12 19:30N 37°58' W 028°24'612.1
2018-Apr-12 19:01N 38°00' W 028°16'612.1
2018-Apr-12 18:30N 38°02' W 028°09'612.2
2018-Apr-12 18:00N 38°04' W 028°02'612.5
2018-Apr-12 17:30N 38°06' W 027°54'612.5
2018-Apr-12 17:01N 38°08' W 027°47'612.9
2018-Apr-12 16:30N 38°09' W 027°39'612.7
2018-Apr-12 16:00N 38°11' W 027°31'612.8
2018-Apr-12 15:31N 38°13' W 027°23'612.8
2018-Apr-12 15:00N 38°15' W 027°15'612.5
2018-Apr-12 14:30N 38°17' W 027°08'612.7
2018-Apr-12 14:00N 38°18' W 027°00'  
2018-Apr-08 11:53N 49°04' W 006°02'9612.7
2018-Apr-08 04:17N 49°44' W 003°48'813.4
2018-Apr-08 03:39N 49°48' W 003°36'313.1
2018-Apr-08 03:26N 49°49' W 003°32'613.3
2018-Apr-08 02:59N 49°52' W 003°24'812.9
2018-Apr-08 02:24N 49°55' W 003°13'512.4
2018-Apr-08 02:00N 49°56' W 003°06'612.4
2018-Apr-08 01:30N 49°59' W 002°57'612.1
2018-Apr-08 01:00N 50°01' W 002°48'611.7
2018-Apr-08 00:29N 50°02' W 002°39'2511.4
2018-Apr-07 22:15N 50°09' W 002°01'312.0
2018-Apr-07 22:00N 50°09' W 001°56'612.3
2018-Apr-07 21:30N 50°11' W 001°47'812.9
2018-Apr-07 20:54N 50°13' W 001°35'513.6
2018-Apr-07 20:30N 50°14' W 001°27'714.1
2018-Apr-07 20:00N 50°16' W 001°16'814.7
2018-Apr-07 19:27N 50°19' W 001°04'3114.7
2018-Apr-07 17:21N 50°27' W 000°18'513.9
2018-Apr-07 17:00N 50°28' W 000°10'713.6
2018-Apr-07 16:30N 50°30' W 000°00'713.3
2018-Apr-07 16:00N 50°32' E 000°10'712.9
2018-Apr-07 15:30N 50°33' E 000°20'612.6
2018-Apr-07 15:00N 50°35' E 000°29'612.3
2018-Apr-07 14:30N 50°37' E 000°38'612.2
2018-Apr-07 14:00N 50°41' E 000°46'612.2
2018-Apr-07 13:30N 50°44' E 000°54'612.5
2018-Apr-07 13:00N 50°48' E 001°03'1913.6
2018-Apr-07 11:38N 51°00' E 001°25'215.0
2018-Apr-07 11:30N 51°02' E 001°27'715.1
2018-Apr-07 11:00N 51°07' E 001°35'815.4
2018-Apr-07 10:30N 51°13' E 001°43'714.6
2018-Apr-07 10:00N 51°19' E 001°50'713.8
2018-Apr-07 09:31N 51°24' E 001°56'713.3
2018-Apr-07 09:00N 51°30' E 002°03'713.0
2018-Apr-07 08:30N 51°34' E 002°10'612.9
2018-Apr-07 08:00N 51°39' E 002°17'612.5
2018-Apr-07 07:30N 51°44' E 002°23'4610.3
2018-Apr-07 03:03N 52°03' E 003°31'112.4
2018-Apr-07 02:59N 52°03' E 003°32'712.6
2018-Apr-07 02:27N 52°04' E 003°43'612.5
2018-Apr-07 02:00N 52°02' E 003°52'510.2
2018-Apr-07 01:31N 52°01' E 003°60'4 8.6
2018-Apr-07 01:00N 51°58' E 004°05'1 1.7
2018-Apr-07 00:30N 51°57' E 004°05'0 0.0
2018-Apr-07 00:00N 51°57' E 004°05'0 0.0
2018-Apr-06 23:30N 51°57' E 004°05'0 0.0
2018-Apr-06 23:00N 51°57' E 004°05'0 0.0
2018-Apr-06 22:30N 51°57' E 004°05'0 0.0
2018-Apr-06 21:54N 51°57' E 004°05'0 0.0
2018-Apr-06 21:30N 51°57' E 004°05'0 0.0
2018-Apr-06 20:54N 51°57' E 004°05'0 0.0
2018-Apr-06 20:30N 51°57' E 004°05'0 0.0
2018-Apr-06 20:00N 51°57' E 004°05'0 0.0
2018-Apr-06 19:30N 51°57' E 004°05'0 0.0
2018-Apr-06 19:00N 51°57' E 004°05'0 0.0
2018-Apr-06 18:12N 51°57' E 004°05'0 0.0
2018-Apr-06 17:48N 51°57' E 004°05'0 0.0
2018-Apr-06 17:30N 51°57' E 004°05'0 0.0
2018-Apr-06 17:00N 51°57' E 004°05'0 0.0
2018-Apr-06 16:30N 51°57' E 004°05'0 0.0
2018-Apr-06 15:42N 51°57' E 004°05'0 0.0
2018-Apr-06 15:30N 51°57' E 004°05'0 0.0
2018-Apr-06 15:00N 51°57' E 004°05'0 0.0
2018-Apr-06 14:27N 51°57' E 004°05'0 0.0
2018-Apr-06 14:00N 51°57' E 004°05'0 0.0
2018-Apr-06 13:24N 51°57' E 004°05'0 0.0
2018-Apr-06 13:00N 51°57' E 004°05'0 0.0
2018-Apr-06 12:30N 51°57' E 004°05'0 0.0
2018-Apr-06 11:48N 51°57' E 004°05'0 0.0
2018-Apr-06 11:24N 51°57' E 004°05'0 0.0
2018-Apr-06 10:57N 51°57' E 004°05'0 0.0
2018-Apr-06 10:24N 51°57' E 004°05'0 0.0
2018-Apr-06 09:54N 51°57' E 004°05'0 0.0
2018-Apr-06 09:30N 51°57' E 004°05'0 0.0
2018-Apr-06 09:00N 51°57' E 004°05'0 0.0
2018-Apr-06 08:30N 51°57' E 004°05'0 0.0
2018-Apr-06 07:54N 51°57' E 004°05'0 0.0
2018-Apr-06 07:30N 51°57' E 004°05'0 0.0
2018-Apr-06 06:57N 51°57' E 004°05'0 0.0
2018-Apr-06 06:27N 51°57' E 004°05'0 0.0
2018-Apr-06 05:45N 51°57' E 004°05'0 0.0
2018-Apr-06 05:27N 51°57' E 004°05'0 0.0
2018-Apr-06 04:57N 51°57' E 004°05'0 0.0
2018-Apr-06 04:30N 51°57' E 004°05'0 0.0
2018-Apr-06 03:51N 51°57' E 004°05'0 0.0
2018-Apr-06 03:21N 51°57' E 004°05'0 0.0
2018-Apr-06 02:51N 51°57' E 004°05'0 0.0
2018-Apr-06 02:24N 51°57' E 004°05'0 0.0
2018-Apr-06 01:54N 51°57' E 004°05'0 0.0
2018-Apr-06 01:30N 51°57' E 004°05'0 0.0
2018-Apr-06 00:57N 51°57' E 004°05'0 0.0
2018-Apr-05 23:48N 51°57' E 004°05'0 0.0
2018-Apr-05 23:30N 51°57' E 004°05'0 0.0
2018-Apr-05 22:54N 51°57' E 004°05'0 0.0
2018-Apr-05 22:30N 51°57' E 004°05'0 0.0
2018-Apr-05 21:59N 51°57' E 004°05'0 0.0
2018-Apr-05 21:30N 51°57' E 004°05'0 0.0
2018-Apr-05 20:48N 51°57' E 004°05'0 0.0
2018-Apr-05 20:06N 51°57' E 004°05'0 0.0
2018-Apr-05 20:00N 51°57' E 004°05'0 0.0
2018-Apr-05 19:30N 51°57' E 004°05'0 0.0
2018-Apr-05 18:59N 51°57' E 004°05'0 0.0
2018-Apr-05 18:30N 51°57' E 004°05'0 0.0
2018-Apr-05 17:56N 51°57' E 004°05'0 0.0
2018-Apr-05 17:21N 51°57' E 004°05'0 0.0
2018-Apr-05 16:57N 51°57' E 004°05'0 0.0
2018-Apr-05 16:30N 51°57' E 004°05'0 0.0
2018-Apr-05 16:00N 51°57' E 004°05'0 0.0
2018-Apr-05 15:23N 51°57' E 004°05'0 0.0
2018-Apr-05 14:56N 51°57' E 004°05'0 0.0
2018-Apr-05 14:29N 51°57' E 004°05'0 0.0
2018-Apr-05 13:51N 51°57' E 004°05'0 0.0
2018-Apr-05 13:20N 51°57' E 004°05'0 0.0
2018-Apr-05 12:56N 51°57' E 004°05'0 0.0
2018-Apr-05 12:26N 51°57' E 004°05'0 0.0
2018-Apr-05 11:56N 51°57' E 004°05'0 0.0
2018-Apr-05 11:26N 51°57' E 004°05'0 0.0
2018-Apr-05 10:50N 51°57' E 004°05'0 0.0
2018-Apr-05 10:14N 51°57' E 004°05'0 0.0
2018-Apr-05 09:45N 51°57' E 004°05'0 0.0
2018-Apr-05 09:26N 51°57' E 004°05'0 0.0
2018-Apr-05 08:56N 51°57' E 004°05'0 0.0
2018-Apr-05 08:26N 51°57' E 004°05'0 0.0
2018-Apr-05 07:59N 51°57' E 004°05'0 0.0
2018-Apr-05 07:29N 51°57' E 004°05'0 0.0
2018-Apr-05 06:59N 51°57' E 004°05'0 0.0
2018-Apr-05 06:29N 51°57' E 004°05'0 0.0
2018-Apr-05 05:59N 51°57' E 004°05'0 0.0
2018-Apr-05 05:29N 51°57' E 004°05'0 0.0
2018-Apr-05 04:59N 51°57' E 004°05'0 0.0
2018-Apr-05 04:23N 51°57' E 004°05'0 0.0
2018-Apr-05 03:59N 51°57' E 004°05'0 0.0
2018-Apr-05 03:23N 51°57' E 004°05'0 0.0
2018-Apr-05 02:56N 51°57' E 004°05'0 0.0
2018-Apr-05 02:29N 51°57' E 004°05'0 0.0
2018-Apr-05 01:56N 51°57' E 004°05'0 0.0
2018-Apr-05 01:29N 51°57' E 004°05'0 0.0
2018-Apr-05 00:59N 51°57' E 004°05'0 0.0
2018-Apr-05 00:26N 51°57' E 004°05'0 0.0
2018-Apr-04 23:59N 51°57' E 004°05'0 0.0
2018-Apr-04 23:29N 51°57' E 004°05'0 0.0
2018-Apr-04 22:59N 51°57' E 004°05'0 0.0
2018-Apr-04 22:29N 51°57' E 004°05'0 0.0
2018-Apr-04 21:56N 51°57' E 004°05'0 0.0
2018-Apr-04 21:26N 51°57' E 004°05'0 0.0
2018-Apr-04 20:59N 51°57' E 004°05'0 0.0
2018-Apr-04 20:29N 51°57' E 004°05'0 0.0
2018-Apr-04 19:59N 51°57' E 004°05'0 0.0
2018-Apr-04 19:29N 51°57' E 004°05'0 0.0
2018-Apr-04 18:59N 51°57' E 004°05'0 0.0
2018-Apr-04 18:26N 51°57' E 004°05'0 0.0
2018-Apr-04 17:59N 51°57' E 004°05'0 0.0
2018-Apr-04 17:23N 51°57' E 004°05'0 0.0
2018-Apr-04 16:59N 51°57' E 004°05'0 0.0
2018-Apr-04 15:53N 51°57' E 004°05'0 0.0
2018-Apr-04 15:29N 51°57' E 004°05'0 0.0
2018-Apr-04 14:53N 51°57' E 004°05'0 0.7
2018-Apr-04 14:30N 51°57' E 004°05'1 2.8
2018-Apr-04 14:00N 51°58' E 004°06'3 6.3
2018-Apr-04 13:30N 51°57' E 004°10'2 3.1
2018-Apr-04 13:00N 51°56' E 004°12'0 0.0
2018-Apr-04 12:27N 51°56' E 004°12'0 0.0
2018-Apr-04 12:00N 51°56' E 004°12'0 0.0
2018-Apr-04 11:30N 51°56' E 004°12'0 0.0
2018-Apr-04 11:00N 51°56' E 004°12'0 0.0
2018-Apr-04 10:30N 51°56' E 004°12'0 0.0
2018-Apr-04 10:00N 51°56' E 004°12'0 0.0
2018-Apr-04 09:30N 51°56' E 004°12'0 0.0
2018-Apr-04 08:57N 51°56' E 004°12'0 0.0
2018-Apr-04 08:30N 51°56' E 004°12'0 0.0
2018-Apr-04 08:00N 51°56' E 004°12'0 0.0
2018-Apr-04 07:30N 51°56' E 004°12'0 0.0
2018-Apr-04 07:00N 51°56' E 004°12'0 0.0
2018-Apr-04 06:30N 51°56' E 004°12'0 0.0
2018-Apr-04 05:54N 51°56' E 004°12'0 0.0
2018-Apr-04 05:30N 51°56' E 004°12'0 0.0
2018-Apr-04 04:57N 51°56' E 004°12'0 0.0
2018-Apr-04 04:24N 51°56' E 004°12'0 0.0
2018-Apr-04 04:00N 51°56' E 004°12'0 0.0
2018-Apr-04 03:30N 51°56' E 004°12'0 0.0
2018-Apr-04 03:00N 51°56' E 004°12'0 0.0
2018-Apr-04 02:24N 51°56' E 004°12'0 0.0
2018-Apr-04 02:00N 51°56' E 004°12'0 0.0
2018-Apr-04 01:30N 51°56' E 004°12'0 0.0
2018-Apr-04 00:57N 51°56' E 004°12'0 0.0
2018-Apr-04 00:30N 51°56' E 004°12'0 0.0
2018-Apr-03 23:57N 51°56' E 004°12'0 0.0
2018-Apr-03 23:21N 51°56' E 004°12'0 0.0
2018-Apr-03 23:00N 51°56' E 004°12'0 0.0
2018-Apr-03 22:27N 51°56' E 004°12'0 0.0
2018-Apr-03 22:00N 51°56' E 004°12'0 0.0
2018-Apr-03 21:30N 51°56' E 004°12'0 0.0
2018-Apr-03 20:57N 51°56' E 004°12'0 0.0
2018-Apr-03 20:30N 51°56' E 004°12'0 0.0
2018-Apr-03 20:00N 51°56' E 004°12'0 0.0
2018-Apr-03 19:30N 51°56' E 004°12'0 0.0
2018-Apr-03 19:00N 51°56' E 004°12'0 0.0
2018-Apr-03 18:30N 51°56' E 004°12'0 0.0
2018-Apr-03 18:00N 51°56' E 004°12'0 0.0
2018-Apr-03 17:30N 51°56' E 004°12'0 0.0
2018-Apr-03 16:57N 51°56' E 004°12'0 0.0
2018-Apr-03 16:30N 51°56' E 004°12'0 0.0
2018-Apr-03 16:00N 51°56' E 004°12'0 0.0
2018-Apr-03 15:30N 51°56' E 004°12'0 0.0
2018-Apr-03 15:00N 51°56' E 004°12'0 0.0
2018-Apr-03 14:27N 51°56' E 004°12'0 0.0
2018-Apr-03 13:57N 51°56' E 004°12'0 0.0
2018-Apr-03 13:27N 51°56' E 004°12'0 0.0
2018-Apr-03 13:00N 51°56' E 004°12'0 0.0
2018-Apr-03 12:30N 51°56' E 004°12'0 0.0
2018-Apr-03 11:42N 51°56' E 004°12'0 0.0
2018-Apr-03 11:30N 51°56' E 004°12'0 0.0
2018-Apr-03 10:57N 51°56' E 004°12'0 0.0
2018-Apr-03 10:30N 51°56' E 004°12'0 0.0
2018-Apr-03 10:00N 51°56' E 004°12'0 0.0
2018-Apr-03 09:30N 51°56' E 004°12'0 0.0
2018-Apr-03 09:00N 51°56' E 004°12'0 0.0
2018-Apr-03 08:30N 51°56' E 004°12'0 0.0
2018-Apr-03 07:57N 51°56' E 004°12'0 0.0
2018-Apr-03 07:27N 51°56' E 004°12'0 0.0
2018-Apr-03 07:00N 51°56' E 004°12'0 0.0
2018-Apr-03 06:30N 51°56' E 004°12'0 0.0
2018-Apr-03 05:57N 51°56' E 004°12'0 0.0
2018-Apr-03 05:30N 51°56' E 004°12'0 0.0
2018-Apr-03 05:00N 51°56' E 004°12'0 0.0
2018-Apr-03 04:30N 51°56' E 004°12'0 0.0
2018-Apr-03 04:00N 51°56' E 004°12'0 0.0
2018-Apr-03 03:27N 51°56' E 004°12'0 0.0
2018-Apr-03 03:00N 51°56' E 004°12'0 0.0
2018-Apr-03 02:30N 51°56' E 004°12'0 0.0
2018-Apr-03 02:00N 51°56' E 004°12'0 0.0
2018-Apr-03 01:30N 51°56' E 004°12'0 0.0
2018-Apr-03 01:00N 51°56' E 004°12'0 0.0
2018-Apr-03 00:30N 51°56' E 004°12'  
Track history (hours):
 
Tides and Currents Weather Stations Pressure Air Temp Water Temp Dewpoint Dewpoint Depression Visibility Wind Speed Wind Dir Waves Ship Positions

Orfeas

Last reported at 2018-Apr-12 23:58 UTC. Time now 2018-Apr-23 13:42 UTC.
Position N 37°44' W 029°28'.
Warning: this ship's position is 10 days out of date.

Length 228 m; draft 12 m.

Type: Tanker. MMSI: 309286000.

Date/timePositionNaut miles runAvg speedWind from/ knotsBaromVisibWave heightAir tempDewpointWater temp
2018-Apr-12 23:58N 37°44' W 029°28'511.8
2018-Apr-12 23:30N 37°45' W 029°21'611.8
2018-Apr-12 23:00N 37°47' W 029°14'611.6
2018-Apr-12 22:30N 37°48' W 029°07'711.3
2018-Apr-12 21:55N 37°50' W 028°59'511.6
2018-Apr-12 21:30N 37°52' W 028°53'611.8
2018-Apr-12 21:01N 37°53' W 028°46'611.9
2018-Apr-12 20:30N 37°55' W 028°39'612.3
2018-Apr-12 20:00N 37°57' W 028°31'612.2
2018-Apr-12 19:30N 37°58' W 028°24'612.1
2018-Apr-12 19:01N 38°00' W 028°16'612.1
2018-Apr-12 18:30N 38°02' W 028°09'612.2
2018-Apr-12 18:00N 38°04' W 028°02'612.5
2018-Apr-12 17:30N 38°06' W 027°54'612.5
2018-Apr-12 17:01N 38°08' W 027°47'612.9
2018-Apr-12 16:30N 38°09' W 027°39'612.7
2018-Apr-12 16:00N 38°11' W 027°31'612.8
2018-Apr-12 15:31N 38°13' W 027°23'612.8
2018-Apr-12 15:00N 38°15' W 027°15'612.5
2018-Apr-12 14:30N 38°17' W 027°08'612.7
2018-Apr-12 14:00N 38°18' W 027°00'  
2018-Apr-08 11:53N 49°04' W 006°02'9612.7
2018-Apr-08 04:17N 49°44' W 003°48'813.4
2018-Apr-08 03:39N 49°48' W 003°36'313.1
2018-Apr-08 03:26N 49°49' W 003°32'613.3
2018-Apr-08 02:59N 49°52' W 003°24'812.9
2018-Apr-08 02:24N 49°55' W 003°13'512.4
2018-Apr-08 02:00N 49°56' W 003°06'612.4
2018-Apr-08 01:30N 49°59' W 002°57'612.1
2018-Apr-08 01:00N 50°01' W 002°48'611.7
2018-Apr-08 00:29N 50°02' W 002°39'2511.4
2018-Apr-07 22:15N 50°09' W 002°01'312.0
2018-Apr-07 22:00N 50°09' W 001°56'612.3
2018-Apr-07 21:30N 50°11' W 001°47'812.9
2018-Apr-07 20:54N 50°13' W 001°35'513.6
2018-Apr-07 20:30N 50°14' W 001°27'714.1
2018-Apr-07 20:00N 50°16' W 001°16'814.7
2018-Apr-07 19:27N 50°19' W 001°04'3114.7
2018-Apr-07 17:21N 50°27' W 000°18'513.9
2018-Apr-07 17:00N 50°28' W 000°10'713.6
2018-Apr-07 16:30N 50°30' W 000°00'713.3
2018-Apr-07 16:00N 50°32' E 000°10'712.9
2018-Apr-07 15:30N 50°33' E 000°20'612.6
2018-Apr-07 15:00N 50°35' E 000°29'612.3
2018-Apr-07 14:30N 50°37' E 000°38'612.2
2018-Apr-07 14:00N 50°41' E 000°46'612.2
2018-Apr-07 13:30N 50°44' E 000°54'612.5
2018-Apr-07 13:00N 50°48' E 001°03'1913.6
2018-Apr-07 11:38N 51°00' E 001°25'215.0
2018-Apr-07 11:30N 51°02' E 001°27'715.1
2018-Apr-07 11:00N 51°07' E 001°35'815.4
2018-Apr-07 10:30N 51°13' E 001°43'714.6
2018-Apr-07 10:00N 51°19' E 001°50'713.8
2018-Apr-07 09:31N 51°24' E 001°56'713.3
2018-Apr-07 09:00N 51°30' E 002°03'713.0
2018-Apr-07 08:30N 51°34' E 002°10'612.9
2018-Apr-07 08:00N 51°39' E 002°17'612.5
2018-Apr-07 07:30N 51°44' E 002°23'4610.3
2018-Apr-07 03:03N 52°03' E 003°31'112.4
2018-Apr-07 02:59N 52°03' E 003°32'712.6
2018-Apr-07 02:27N 52°04' E 003°43'612.5
2018-Apr-07 02:00N 52°02' E 003°52'510.2
2018-Apr-07 01:31N 52°01' E 003°60'4 8.6
2018-Apr-07 01:00N 51°58' E 004°05'1 1.7
2018-Apr-07 00:30N 51°57' E 004°05'0 0.0
2018-Apr-07 00:00N 51°57' E 004°05'0 0.0
2018-Apr-06 23:30N 51°57' E 004°05'0 0.0
2018-Apr-06 23:00N 51°57' E 004°05'0 0.0
2018-Apr-06 22:30N 51°57' E 004°05'0 0.0
2018-Apr-06 21:54N 51°57' E 004°05'0 0.0
2018-Apr-06 21:30N 51°57' E 004°05'0 0.0
2018-Apr-06 20:54N 51°57' E 004°05'0 0.0
2018-Apr-06 20:30N 51°57' E 004°05'0 0.0
2018-Apr-06 20:00N 51°57' E 004°05'0 0.0
2018-Apr-06 19:30N 51°57' E 004°05'0 0.0
2018-Apr-06 19:00N 51°57' E 004°05'0 0.0
2018-Apr-06 18:12N 51°57' E 004°05'0 0.0
2018-Apr-06 17:48N 51°57' E 004°05'0 0.0
2018-Apr-06 17:30N 51°57' E 004°05'0 0.0
2018-Apr-06 17:00N 51°57' E 004°05'0 0.0
2018-Apr-06 16:30N 51°57' E 004°05'0 0.0
2018-Apr-06 15:42N 51°57' E 004°05'0 0.0
2018-Apr-06 15:30N 51°57' E 004°05'0 0.0
2018-Apr-06 15:00N 51°57' E 004°05'0 0.0
2018-Apr-06 14:27N 51°57' E 004°05'0 0.0
2018-Apr-06 14:00N 51°57' E 004°05'0 0.0
2018-Apr-06 13:24N 51°57' E 004°05'0 0.0
2018-Apr-06 13:00N 51°57' E 004°05'0 0.0
2018-Apr-06 12:30N 51°57' E 004°05'0 0.0
2018-Apr-06 11:48N 51°57' E 004°05'0 0.0
2018-Apr-06 11:24N 51°57' E 004°05'0 0.0
2018-Apr-06 10:57N 51°57' E 004°05'0 0.0
2018-Apr-06 10:24N 51°57' E 004°05'0 0.0
2018-Apr-06 09:54N 51°57' E 004°05'0 0.0
2018-Apr-06 09:30N 51°57' E 004°05'0 0.0
2018-Apr-06 09:00N 51°57' E 004°05'0 0.0
2018-Apr-06 08:30N 51°57' E 004°05'0 0.0
2018-Apr-06 07:54N 51°57' E 004°05'0 0.0
2018-Apr-06 07:30N 51°57' E 004°05'0 0.0
2018-Apr-06 06:57N 51°57' E 004°05'0 0.0
2018-Apr-06 06:27N 51°57' E 004°05'0 0.0
2018-Apr-06 05:45N 51°57' E 004°05'0 0.0
2018-Apr-06 05:27N 51°57' E 004°05'0 0.0
2018-Apr-06 04:57N 51°57' E 004°05'0 0.0
2018-Apr-06 04:30N 51°57' E 004°05'0 0.0
2018-Apr-06 03:51N 51°57' E 004°05'0 0.0
2018-Apr-06 03:21N 51°57' E 004°05'0 0.0
2018-Apr-06 02:51N 51°57' E 004°05'0 0.0
2018-Apr-06 02:24N 51°57' E 004°05'0 0.0
2018-Apr-06 01:54N 51°57' E 004°05'0 0.0
2018-Apr-06 01:30N 51°57' E 004°05'0 0.0
2018-Apr-06 00:57N 51°57' E 004°05'0 0.0
2018-Apr-05 23:48N 51°57' E 004°05'0 0.0
2018-Apr-05 23:30N 51°57' E 004°05'0 0.0
2018-Apr-05 22:54N 51°57' E 004°05'0 0.0
2018-Apr-05 22:30N 51°57' E 004°05'0 0.0
2018-Apr-05 21:59N 51°57' E 004°05'0 0.0
2018-Apr-05 21:30N 51°57' E 004°05'0 0.0
2018-Apr-05 20:48N 51°57' E 004°05'0 0.0
2018-Apr-05 20:06N 51°57' E 004°05'0 0.0
2018-Apr-05 20:00N 51°57' E 004°05'0 0.0
2018-Apr-05 19:30N 51°57' E 004°05'0 0.0
2018-Apr-05 18:59N 51°57' E 004°05'0 0.0
2018-Apr-05 18:30N 51°57' E 004°05'0 0.0
2018-Apr-05 17:56N 51°57' E 004°05'0 0.0
2018-Apr-05 17:21N 51°57' E 004°05'0 0.0
2018-Apr-05 16:57N 51°57' E 004°05'0 0.0
2018-Apr-05 16:30N 51°57' E 004°05'0 0.0
2018-Apr-05 16:00N 51°57' E 004°05'0 0.0
2018-Apr-05 15:23N 51°57' E 004°05'0 0.0
2018-Apr-05 14:56N 51°57' E 004°05'0 0.0
2018-Apr-05 14:29N 51°57' E 004°05'0 0.0
2018-Apr-05 13:51N 51°57' E 004°05'0 0.0
2018-Apr-05 13:20N 51°57' E 004°05'0 0.0
2018-Apr-05 12:56N 51°57' E 004°05'0 0.0
2018-Apr-05 12:26N 51°57' E 004°05'0 0.0
2018-Apr-05 11:56N 51°57' E 004°05'0 0.0
2018-Apr-05 11:26N 51°57' E 004°05'0 0.0
2018-Apr-05 10:50N 51°57' E 004°05'0 0.0
2018-Apr-05 10:14N 51°57' E 004°05'0 0.0
2018-Apr-05 09:45N 51°57' E 004°05'0 0.0
2018-Apr-05 09:26N 51°57' E 004°05'0 0.0
2018-Apr-05 08:56N 51°57' E 004°05'0 0.0
2018-Apr-05 08:26N 51°57' E 004°05'0 0.0
2018-Apr-05 07:59N 51°57' E 004°05'0 0.0
2018-Apr-05 07:29N 51°57' E 004°05'0 0.0
2018-Apr-05 06:59N 51°57' E 004°05'0 0.0
2018-Apr-05 06:29N 51°57' E 004°05'0 0.0
2018-Apr-05 05:59N 51°57' E 004°05'0 0.0
2018-Apr-05 05:29N 51°57' E 004°05'0 0.0
2018-Apr-05 04:59N 51°57' E 004°05'0 0.0
2018-Apr-05 04:23N 51°57' E 004°05'0 0.0
2018-Apr-05 03:59N 51°57' E 004°05'0 0.0
2018-Apr-05 03:23N 51°57' E 004°05'0 0.0
2018-Apr-05 02:56N 51°57' E 004°05'0 0.0
2018-Apr-05 02:29N 51°57' E 004°05'0 0.0
2018-Apr-05 01:56N 51°57' E 004°05'0 0.0
2018-Apr-05 01:29N 51°57' E 004°05'0 0.0
2018-Apr-05 00:59N 51°57' E 004°05'0 0.0
2018-Apr-05 00:26N 51°57' E 004°05'0 0.0
2018-Apr-04 23:59N 51°57' E 004°05'0 0.0
2018-Apr-04 23:29N 51°57' E 004°05'0 0.0
2018-Apr-04 22:59N 51°57' E 004°05'0 0.0
2018-Apr-04 22:29N 51°57' E 004°05'0 0.0
2018-Apr-04 21:56N 51°57' E 004°05'0 0.0
2018-Apr-04 21:26N 51°57' E 004°05'0 0.0
2018-Apr-04 20:59N 51°57' E 004°05'0 0.0
2018-Apr-04 20:29N 51°57' E 004°05'0 0.0
2018-Apr-04 19:59N 51°57' E 004°05'0 0.0
2018-Apr-04 19:29N 51°57' E 004°05'0 0.0
2018-Apr-04 18:59N 51°57' E 004°05'0 0.0
2018-Apr-04 18:26N 51°57' E 004°05'0 0.0
2018-Apr-04 17:59N 51°57' E 004°05'0 0.0
2018-Apr-04 17:23N 51°57' E 004°05'0 0.0
2018-Apr-04 16:59N 51°57' E 004°05'0 0.0
2018-Apr-04 15:53N 51°57' E 004°05'0 0.0
2018-Apr-04 15:29N 51°57' E 004°05'0 0.0
2018-Apr-04 14:53N 51°57' E 004°05'0 0.7
2018-Apr-04 14:30N 51°57' E 004°05'1 2.8
2018-Apr-04 14:00N 51°58' E 004°06'3 6.3
2018-Apr-04 13:30N 51°57' E 004°10'2 3.1
2018-Apr-04 13:00N 51°56' E 004°12'0 0.0
2018-Apr-04 12:27N 51°56' E 004°12'0 0.0
2018-Apr-04 12:00N 51°56' E 004°12'0 0.0
2018-Apr-04 11:30N 51°56' E 004°12'0 0.0
2018-Apr-04 11:00N 51°56' E 004°12'0 0.0
2018-Apr-04 10:30N 51°56' E 004°12'0 0.0
2018-Apr-04 10:00N 51°56' E 004°12'0 0.0
2018-Apr-04 09:30N 51°56' E 004°12'0 0.0
2018-Apr-04 08:57N 51°56' E 004°12'0 0.0
2018-Apr-04 08:30N 51°56' E 004°12'0 0.0
2018-Apr-04 08:00N 51°56' E 004°12'0 0.0
2018-Apr-04 07:30N 51°56' E 004°12'0 0.0
2018-Apr-04 07:00N 51°56' E 004°12'0 0.0
2018-Apr-04 06:30N 51°56' E 004°12'0 0.0
2018-Apr-04 05:54N 51°56' E 004°12'0 0.0
2018-Apr-04 05:30N 51°56' E 004°12'0 0.0
2018-Apr-04 04:57N 51°56' E 004°12'0 0.0
2018-Apr-04 04:24N 51°56' E 004°12'0 0.0
2018-Apr-04 04:00N 51°56' E 004°12'0 0.0
2018-Apr-04 03:30N 51°56' E 004°12'0 0.0
2018-Apr-04 03:00N 51°56' E 004°12'0 0.0
2018-Apr-04 02:24N 51°56' E 004°12'0 0.0
2018-Apr-04 02:00N 51°56' E 004°12'0 0.0
2018-Apr-04 01:30N 51°56' E 004°12'0 0.0
2018-Apr-04 00:57N 51°56' E 004°12'0 0.0
2018-Apr-04 00:30N 51°56' E 004°12'0 0.0
2018-Apr-03 23:57N 51°56' E 004°12'0 0.0
2018-Apr-03 23:21N 51°56' E 004°12'0 0.0
2018-Apr-03 23:00N 51°56' E 004°12'0 0.0
2018-Apr-03 22:27N 51°56' E 004°12'0 0.0
2018-Apr-03 22:00N 51°56' E 004°12'0 0.0
2018-Apr-03 21:30N 51°56' E 004°12'0 0.0
2018-Apr-03 20:57N 51°56' E 004°12'0 0.0
2018-Apr-03 20:30N 51°56' E 004°12'0 0.0
2018-Apr-03 20:00N 51°56' E 004°12'0 0.0
2018-Apr-03 19:30N 51°56' E 004°12'0 0.0
2018-Apr-03 19:00N 51°56' E 004°12'0 0.0
2018-Apr-03 18:30N 51°56' E 004°12'0 0.0
2018-Apr-03 18:00N 51°56' E 004°12'0 0.0
2018-Apr-03 17:30N 51°56' E 004°12'0 0.0
2018-Apr-03 16:57N 51°56' E 004°12'0 0.0
2018-Apr-03 16:30N 51°56' E 004°12'0 0.0
2018-Apr-03 16:00N 51°56' E 004°12'0 0.0
2018-Apr-03 15:30N 51°56' E 004°12'0 0.0
2018-Apr-03 15:00N 51°56' E 004°12'0 0.0
2018-Apr-03 14:27N 51°56' E 004°12'0 0.0
2018-Apr-03 13:57N 51°56' E 004°12'0 0.0
2018-Apr-03 13:27N 51°56' E 004°12'0 0.0
2018-Apr-03 13:00N 51°56' E 004°12'0 0.0
2018-Apr-03 12:30N 51°56' E 004°12'0 0.0
2018-Apr-03 11:42N 51°56' E 004°12'0 0.0
2018-Apr-03 11:30N 51°56' E 004°12'0 0.0
2018-Apr-03 10:57N 51°56' E 004°12'0 0.0
2018-Apr-03 10:30N 51°56' E 004°12'0 0.0
2018-Apr-03 10:00N 51°56' E 004°12'0 0.0
2018-Apr-03 09:30N 51°56' E 004°12'0 0.0
2018-Apr-03 09:00N 51°56' E 004°12'0 0.0
2018-Apr-03 08:30N 51°56' E 004°12'0 0.0
2018-Apr-03 07:57N 51°56' E 004°12'0 0.0
2018-Apr-03 07:27N 51°56' E 004°12'0 0.0
2018-Apr-03 07:00N 51°56' E 004°12'0 0.0
2018-Apr-03 06:30N 51°56' E 004°12'0 0.0
2018-Apr-03 05:57N 51°56' E 004°12'0 0.0
2018-Apr-03 05:30N 51°56' E 004°12'0 0.0
2018-Apr-03 05:00N 51°56' E 004°12'0 0.0
2018-Apr-03 04:30N 51°56' E 004°12'0 0.0
2018-Apr-03 04:00N 51°56' E 004°12'0 0.0
2018-Apr-03 03:27N 51°56' E 004°12'0 0.0
2018-Apr-03 03:00N 51°56' E 004°12'0 0.0
2018-Apr-03 02:30N 51°56' E 004°12'0 0.0
2018-Apr-03 02:00N 51°56' E 004°12'0 0.0
2018-Apr-03 01:30N 51°56' E 004°12'0 0.0
2018-Apr-03 01:00N 51°56' E 004°12'0 0.0
2018-Apr-03 00:30N 51°56' E 004°12'  

Dump ship's entire track history